sensor_id;sensor_type;location;lat;lon;timestamp;P1;durP1;ratioP1;P2;durP2;ratioP2
56997;SDS011;42890;44.244;22.530;2023-05-02T00:01:32;9.23;;;8.38;;
56997;SDS011;42890;44.244;22.530;2023-05-02T00:04:00;10.25;;;8.32;;
56997;SDS011;42890;44.244;22.530;2023-05-02T00:06:26;9.63;;;8.18;;
56997;SDS011;42890;44.244;22.530;2023-05-02T00:08:52;10.52;;;7.85;;
56997;SDS011;42890;44.244;22.530;2023-05-02T00:11:18;11.38;;;8.10;;
56997;SDS011;42890;44.244;22.530;2023-05-02T00:13:44;11.43;;;8.15;;
56997;SDS011;42890;44.244;22.530;2023-05-02T00:16:10;11.02;;;8.63;;
56997;SDS011;42890;44.244;22.530;2023-05-02T00:18:37;11.80;;;8.75;;
56997;SDS011;42890;44.244;22.530;2023-05-02T00:21:03;10.75;;;9.50;;
56997;SDS011;42890;44.244;22.530;2023-05-02T00:23:29;20.00;;;13.02;;
56997;SDS011;42890;44.244;22.530;2023-05-02T00:25:55;14.73;;;13.00;;
56997;SDS011;42890;44.244;22.530;2023-05-02T00:28:21;9.85;;;8.82;;
56997;SDS011;42890;44.244;22.530;2023-05-02T00:30:47;11.27;;;7.25;;
56997;SDS011;42890;44.244;22.530;2023-05-02T00:33:14;8.70;;;7.60;;
56997;SDS011;42890;44.244;22.530;2023-05-02T00:35:40;9.27;;;7.72;;
56997;SDS011;42890;44.244;22.530;2023-05-02T00:38:06;8.23;;;7.43;;
56997;SDS011;42890;44.244;22.530;2023-05-02T00:40:45;8.05;;;7.20;;
56997;SDS011;42890;44.244;22.530;2023-05-02T00:43:12;9.30;;;7.28;;
56997;SDS011;42890;44.244;22.530;2023-05-02T00:45:38;8.52;;;7.63;;
56997;SDS011;42890;44.244;22.530;2023-05-02T00:48:05;8.30;;;7.50;;
56997;SDS011;42890;44.244;22.530;2023-05-02T00:50:33;8.40;;;7.45;;
56997;SDS011;42890;44.244;22.530;2023-05-02T00:52:59;8.35;;;7.65;;
56997;SDS011;42890;44.244;22.530;2023-05-02T00:55:26;17.08;;;8.70;;
56997;SDS011;42890;44.244;22.530;2023-05-02T00:57:52;10.32;;;8.52;;
56997;SDS011;42890;44.244;22.530;2023-05-02T01:00:19;13.48;;;8.70;;
56997;SDS011;42890;44.244;22.530;2023-05-02T01:02:52;9.43;;;7.38;;
56997;SDS011;42890;44.244;22.530;2023-05-02T01:05:22;12.20;;;7.90;;
56997;SDS011;42890;44.244;22.530;2023-05-02T01:07:53;8.55;;;7.15;;
56997;SDS011;42890;44.244;22.530;2023-05-02T01:13:08;8.23;;;7.00;;
56997;SDS011;42890;44.244;22.530;2023-05-02T01:15:36;10.27;;;7.57;;
56997;SDS011;42890;44.244;22.530;2023-05-02T01:18:03;16.20;;;7.68;;
56997;SDS011;42890;44.244;22.530;2023-05-02T01:20:30;10.93;;;7.68;;
56997;SDS011;42890;44.244;22.530;2023-05-02T01:22:59;11.35;;;7.45;;
56997;SDS011;42890;44.244;22.530;2023-05-02T01:25:32;8.32;;;7.35;;
56997;SDS011;42890;44.244;22.530;2023-05-02T01:30:37;11.55;;;8.30;;
56997;SDS011;42890;44.244;22.530;2023-05-02T01:33:07;12.50;;;8.43;;
56997;SDS011;42890;44.244;22.530;2023-05-02T01:35:33;10.63;;;8.50;;
56997;SDS011;42890;44.244;22.530;2023-05-02T01:38:00;8.73;;;7.90;;
56997;SDS011;42890;44.244;22.530;2023-05-02T01:40:27;8.82;;;7.93;;
56997;SDS011;42890;44.244;22.530;2023-05-02T01:42:53;11.40;;;7.97;;
56997;SDS011;42890;44.244;22.530;2023-05-02T01:45:21;8.88;;;7.70;;
56997;SDS011;42890;44.244;22.530;2023-05-02T01:47:48;10.68;;;7.75;;
56997;SDS011;42890;44.244;22.530;2023-05-02T01:50:16;8.80;;;7.45;;
56997;SDS011;42890;44.244;22.530;2023-05-02T01:52:44;12.18;;;7.28;;
56997;SDS011;42890;44.244;22.530;2023-05-02T01:55:12;10.63;;;8.40;;
56997;SDS011;42890;44.244;22.530;2023-05-02T01:57:39;10.57;;;7.57;;
56997;SDS011;42890;44.244;22.530;2023-05-02T02:00:07;11.38;;;7.47;;
56997;SDS011;42890;44.244;22.530;2023-05-02T02:02:34;7.88;;;6.80;;
56997;SDS011;42890;44.244;22.530;2023-05-02T02:05:01;10.18;;;6.70;;
56997;SDS011;42890;44.244;22.530;2023-05-02T02:07:29;7.32;;;6.68;;
56997;SDS011;42890;44.244;22.530;2023-05-02T02:09:55;7.20;;;6.50;;
56997;SDS011;42890;44.244;22.530;2023-05-02T02:15:24;8.02;;;6.72;;
56997;SDS011;42890;44.244;22.530;2023-05-02T02:20:36;8.82;;;7.40;;
56997;SDS011;42890;44.244;22.530;2023-05-02T02:23:04;9.00;;;7.35;;
56997;SDS011;42890;44.244;22.530;2023-05-02T02:25:31;11.15;;;7.13;;
56997;SDS011;42890;44.244;22.530;2023-05-02T02:27:59;9.57;;;7.10;;
56997;SDS011;42890;44.244;22.530;2023-05-02T02:30:25;7.82;;;6.68;;
56997;SDS011;42890;44.244;22.530;2023-05-02T02:32:52;8.00;;;6.85;;
56997;SDS011;42890;44.244;22.530;2023-05-02T02:35:18;8.15;;;7.18;;
56997;SDS011;42890;44.244;22.530;2023-05-02T02:40:30;8.32;;;7.15;;
56997;SDS011;42890;44.244;22.530;2023-05-02T02:53:33;14.50;;;7.80;;
56997;SDS011;42890;44.244;22.530;2023-05-02T02:56:06;7.85;;;7.15;;
56997;SDS011;42890;44.244;22.530;2023-05-02T03:01:19;8.82;;;7.07;;
56997;SDS011;42890;44.244;22.530;2023-05-02T03:03:45;9.82;;;7.88;;
56997;SDS011;42890;44.244;22.530;2023-05-02T03:06:12;9.68;;;7.00;;
56997;SDS011;42890;44.244;22.530;2023-05-02T03:08:42;9.65;;;7.13;;
56997;SDS011;42890;44.244;22.530;2023-05-02T03:11:08;10.13;;;7.80;;
56997;SDS011;42890;44.244;22.530;2023-05-02T03:13:34;9.35;;;7.50;;
56997;SDS011;42890;44.244;22.530;2023-05-02T03:16:26;9.43;;;7.22;;
56997;SDS011;42890;44.244;22.530;2023-05-02T03:18:54;9.32;;;6.90;;
56997;SDS011;42890;44.244;22.530;2023-05-02T03:21:21;7.22;;;6.45;;
56997;SDS011;42890;44.244;22.530;2023-05-02T03:23:47;8.02;;;6.97;;
56997;SDS011;42890;44.244;22.530;2023-05-02T03:26:13;8.70;;;7.05;;
56997;SDS011;42890;44.244;22.530;2023-05-02T03:28:39;8.25;;;7.45;;
56997;SDS011;42890;44.244;22.530;2023-05-02T03:31:06;8.63;;;7.72;;
56997;SDS011;42890;44.244;22.530;2023-05-02T03:33:32;7.40;;;6.75;;
56997;SDS011;42890;44.244;22.530;2023-05-02T03:35:58;7.93;;;7.13;;
56997;SDS011;42890;44.244;22.530;2023-05-02T03:38:24;9.18;;;7.43;;
56997;SDS011;42890;44.244;22.530;2023-05-02T03:40:51;9.82;;;7.28;;
56997;SDS011;42890;44.244;22.530;2023-05-02T03:43:17;8.15;;;7.22;;
56997;SDS011;42890;44.244;22.530;2023-05-02T03:45:43;9.80;;;7.68;;
56997;SDS011;42890;44.244;22.530;2023-05-02T03:48:09;9.93;;;8.05;;
56997;SDS011;42890;44.244;22.530;2023-05-02T03:50:36;8.10;;;7.30;;
56997;SDS011;42890;44.244;22.530;2023-05-02T03:53:02;8.30;;;7.50;;
56997;SDS011;42890;44.244;22.530;2023-05-02T03:55:28;9.50;;;8.10;;
56997;SDS011;42890;44.244;22.530;2023-05-02T03:57:54;8.00;;;7.10;;
56997;SDS011;42890;44.244;22.530;2023-05-02T04:00:21;10.05;;;7.70;;
56997;SDS011;42890;44.244;22.530;2023-05-02T04:02:47;9.52;;;7.50;;
56997;SDS011;42890;44.244;22.530;2023-05-02T04:05:14;9.77;;;7.93;;
56997;SDS011;42890;44.244;22.530;2023-05-02T04:07:40;13.25;;;8.15;;
56997;SDS011;42890;44.244;22.530;2023-05-02T04:10:06;8.57;;;7.60;;
56997;SDS011;42890;44.244;22.530;2023-05-02T04:12:40;9.30;;;8.50;;
56997;SDS011;42890;44.244;22.530;2023-05-02T04:15:06;9.00;;;8.20;;
56997;SDS011;42890;44.244;22.530;2023-05-02T04:17:32;11.23;;;8.20;;
56997;SDS011;42890;44.244;22.530;2023-05-02T04:19:58;10.80;;;8.27;;
56997;SDS011;42890;44.244;22.530;2023-05-02T04:22:25;9.68;;;8.63;;
56997;SDS011;42890;44.244;22.530;2023-05-02T04:24:51;8.98;;;8.13;;
56997;SDS011;42890;44.244;22.530;2023-05-02T04:27:17;10.05;;;8.40;;
56997;SDS011;42890;44.244;22.530;2023-05-02T04:29:46;10.25;;;8.18;;
56997;SDS011;42890;44.244;22.530;2023-05-02T04:32:12;12.68;;;7.95;;
56997;SDS011;42890;44.244;22.530;2023-05-02T04:34:38;11.52;;;7.35;;
56997;SDS011;42890;44.244;22.530;2023-05-02T04:37:05;9.40;;;8.18;;
56997;SDS011;42890;44.244;22.530;2023-05-02T04:39:31;12.70;;;7.65;;
56997;SDS011;42890;44.244;22.530;2023-05-02T04:41:57;19.98;;;7.40;;
56997;SDS011;42890;44.244;22.530;2023-05-02T04:44:24;10.73;;;7.40;;
56997;SDS011;42890;44.244;22.530;2023-05-02T04:46:50;8.20;;;6.85;;
56997;SDS011;42890;44.244;22.530;2023-05-02T04:49:16;8.00;;;7.22;;
56997;SDS011;42890;44.244;22.530;2023-05-02T04:51:43;11.55;;;8.10;;
56997;SDS011;42890;44.244;22.530;2023-05-02T04:54:09;15.73;;;7.57;;
56997;SDS011;42890;44.244;22.530;2023-05-02T04:56:35;12.68;;;7.20;;
56997;SDS011;42890;44.244;22.530;2023-05-02T04:59:02;11.65;;;7.72;;
56997;SDS011;42890;44.244;22.530;2023-05-02T05:01:28;8.60;;;7.25;;
56997;SDS011;42890;44.244;22.530;2023-05-02T05:03:54;11.85;;;7.78;;
56997;SDS011;42890;44.244;22.530;2023-05-02T05:06:21;8.57;;;7.53;;
56997;SDS011;42890;44.244;22.530;2023-05-02T05:08:47;9.68;;;7.50;;
56997;SDS011;42890;44.244;22.530;2023-05-02T05:11:13;9.07;;;7.45;;
56997;SDS011;42890;44.244;22.530;2023-05-02T05:13:40;17.33;;;7.43;;
56997;SDS011;42890;44.244;22.530;2023-05-02T05:16:07;7.85;;;7.15;;
56997;SDS011;42890;44.244;22.530;2023-05-02T05:18:33;10.25;;;7.07;;
56997;SDS011;42890;44.244;22.530;2023-05-02T05:21:07;9.45;;;6.90;;
56997;SDS011;42890;44.244;22.530;2023-05-02T05:23:33;10.23;;;7.10;;
56997;SDS011;42890;44.244;22.530;2023-05-02T05:26:09;11.73;;;7.47;;
56997;SDS011;42890;44.244;22.530;2023-05-02T05:28:35;11.73;;;7.80;;
56997;SDS011;42890;44.244;22.530;2023-05-02T05:31:08;13.52;;;8.25;;
56997;SDS011;42890;44.244;22.530;2023-05-02T05:33:35;10.30;;;7.70;;
56997;SDS011;42890;44.244;22.530;2023-05-02T05:38:30;16.67;;;8.00;;
56997;SDS011;42890;44.244;22.530;2023-05-02T05:40:56;11.48;;;7.90;;
56997;SDS011;42890;44.244;22.530;2023-05-02T05:43:22;13.35;;;7.82;;
56997;SDS011;42890;44.244;22.530;2023-05-02T05:45:50;11.20;;;7.40;;
56997;SDS011;42890;44.244;22.530;2023-05-02T05:48:17;11.65;;;8.02;;
56997;SDS011;42890;44.244;22.530;2023-05-02T05:50:43;15.90;;;8.55;;
56997;SDS011;42890;44.244;22.530;2023-05-02T05:53:09;9.48;;;8.35;;
56997;SDS011;42890;44.244;22.530;2023-05-02T05:55:35;11.73;;;8.45;;
56997;SDS011;42890;44.244;22.530;2023-05-02T05:58:03;10.25;;;7.70;;
56997;SDS011;42890;44.244;22.530;2023-05-02T06:00:29;21.15;;;8.07;;
56997;SDS011;42890;44.244;22.530;2023-05-02T06:02:55;15.15;;;8.35;;
56997;SDS011;42890;44.244;22.530;2023-05-02T06:05:21;12.02;;;7.70;;
56997;SDS011;42890;44.244;22.530;2023-05-02T06:07:47;9.20;;;7.40;;
56997;SDS011;42890;44.244;22.530;2023-05-02T06:10:14;13.05;;;8.35;;
56997;SDS011;42890;44.244;22.530;2023-05-02T06:12:40;10.27;;;7.40;;
56997;SDS011;42890;44.244;22.530;2023-05-02T06:15:06;13.48;;;8.07;;
56997;SDS011;42890;44.244;22.530;2023-05-02T06:17:33;13.98;;;9.20;;
56997;SDS011;42890;44.244;22.530;2023-05-02T06:19:59;8.65;;;7.28;;
56997;SDS011;42890;44.244;22.530;2023-05-02T06:22:25;9.23;;;7.35;;
56997;SDS011;42890;44.244;22.530;2023-05-02T06:24:51;9.98;;;7.63;;
56997;SDS011;42890;44.244;22.530;2023-05-02T06:27:17;9.73;;;7.75;;
56997;SDS011;42890;44.244;22.530;2023-05-02T06:29:43;12.00;;;7.68;;
56997;SDS011;42890;44.244;22.530;2023-05-02T06:32:09;16.25;;;7.88;;
56997;SDS011;42890;44.244;22.530;2023-05-02T06:34:36;9.75;;;7.20;;
56997;SDS011;42890;44.244;22.530;2023-05-02T06:37:02;18.20;;;8.30;;
56997;SDS011;42890;44.244;22.530;2023-05-02T06:39:28;10.13;;;7.80;;
56997;SDS011;42890;44.244;22.530;2023-05-02T06:41:57;11.60;;;7.22;;
56997;SDS011;42890;44.244;22.530;2023-05-02T06:44:23;13.13;;;7.47;;
56997;SDS011;42890;44.244;22.530;2023-05-02T06:46:49;8.38;;;7.47;;
56997;SDS011;42890;44.244;22.530;2023-05-02T06:49:15;11.27;;;7.80;;
56997;SDS011;42890;44.244;22.530;2023-05-02T06:51:42;10.25;;;7.85;;
56997;SDS011;42890;44.244;22.530;2023-05-02T06:54:08;11.50;;;7.28;;
56997;SDS011;42890;44.244;22.530;2023-05-02T06:56:34;9.95;;;7.82;;
56997;SDS011;42890;44.244;22.530;2023-05-02T06:59:00;12.65;;;7.75;;
56997;SDS011;42890;44.244;22.530;2023-05-02T07:01:27;10.13;;;7.85;;
56997;SDS011;42890;44.244;22.530;2023-05-02T07:03:53;8.95;;;7.03;;
56997;SDS011;42890;44.244;22.530;2023-05-02T07:06:19;8.68;;;7.75;;
56997;SDS011;42890;44.244;22.530;2023-05-02T07:08:45;11.35;;;8.10;;
56997;SDS011;42890;44.244;22.530;2023-05-02T07:11:12;10.18;;;7.68;;
56997;SDS011;42890;44.244;22.530;2023-05-02T07:13:38;11.93;;;8.73;;
56997;SDS011;42890;44.244;22.530;2023-05-02T07:16:05;8.57;;;7.45;;
56997;SDS011;42890;44.244;22.530;2023-05-02T07:18:31;11.93;;;7.80;;
56997;SDS011;42890;44.244;22.530;2023-05-02T07:20:57;11.65;;;8.18;;
56997;SDS011;42890;44.244;22.530;2023-05-02T07:23:25;16.35;;;8.07;;
56997;SDS011;42890;44.244;22.530;2023-05-02T07:25:51;13.10;;;7.32;;
56997;SDS011;42890;44.244;22.530;2023-05-02T07:28:17;12.18;;;7.35;;
56997;SDS011;42890;44.244;22.530;2023-05-02T07:30:43;12.63;;;7.32;;
56997;SDS011;42890;44.244;22.530;2023-05-02T07:33:10;10.65;;;8.00;;
56997;SDS011;42890;44.244;22.530;2023-05-02T07:35:36;15.02;;;8.57;;
56997;SDS011;42890;44.244;22.530;2023-05-02T07:38:02;13.95;;;7.50;;
56997;SDS011;42890;44.244;22.530;2023-05-02T07:40:28;9.68;;;7.30;;
56997;SDS011;42890;44.244;22.530;2023-05-02T07:42:54;11.13;;;7.28;;
56997;SDS011;42890;44.244;22.530;2023-05-02T07:45:20;13.80;;;7.40;;
56997;SDS011;42890;44.244;22.530;2023-05-02T07:47:47;7.93;;;6.53;;
56997;SDS011;42890;44.244;22.530;2023-05-02T07:50:13;8.85;;;6.80;;
56997;SDS011;42890;44.244;22.530;2023-05-02T07:52:39;8.38;;;7.10;;
56997;SDS011;42890;44.244;22.530;2023-05-02T07:55:05;12.88;;;7.18;;
56997;SDS011;42890;44.244;22.530;2023-05-02T07:57:32;13.75;;;8.07;;
56997;SDS011;42890;44.244;22.530;2023-05-02T07:59:58;9.23;;;7.60;;
56997;SDS011;42890;44.244;22.530;2023-05-02T08:02:24;8.00;;;6.88;;
56997;SDS011;42890;44.244;22.530;2023-05-02T08:04:51;13.27;;;6.85;;
56997;SDS011;42890;44.244;22.530;2023-05-02T08:07:18;7.93;;;6.20;;
56997;SDS011;42890;44.244;22.530;2023-05-02T08:09:44;8.05;;;6.53;;
56997;SDS011;42890;44.244;22.530;2023-05-02T08:12:10;9.48;;;7.57;;
56997;SDS011;42890;44.244;22.530;2023-05-02T08:14:36;11.68;;;7.25;;
56997;SDS011;42890;44.244;22.530;2023-05-02T08:17:02;16.02;;;10.20;;
56997;SDS011;42890;44.244;22.530;2023-05-02T08:19:28;11.55;;;8.13;;
56997;SDS011;42890;44.244;22.530;2023-05-02T08:21:55;14.32;;;11.27;;
56997;SDS011;42890;44.244;22.530;2023-05-02T08:24:22;24.48;;;15.98;;
56997;SDS011;42890;44.244;22.530;2023-05-02T08:26:48;12.27;;;9.98;;
56997;SDS011;42890;44.244;22.530;2023-05-02T08:29:14;7.78;;;5.63;;
56997;SDS011;42890;44.244;22.530;2023-05-02T08:31:41;7.43;;;5.57;;
56997;SDS011;42890;44.244;22.530;2023-05-02T08:34:07;9.20;;;6.45;;
56997;SDS011;42890;44.244;22.530;2023-05-02T08:36:33;11.80;;;7.40;;
56997;SDS011;42890;44.244;22.530;2023-05-02T08:39:01;9.18;;;5.82;;
56997;SDS011;42890;44.244;22.530;2023-05-02T08:41:27;9.32;;;6.22;;
56997;SDS011;42890;44.244;22.530;2023-05-02T08:43:55;15.25;;;8.32;;
56997;SDS011;42890;44.244;22.530;2023-05-02T08:46:21;8.38;;;6.07;;
56997;SDS011;42890;44.244;22.530;2023-05-02T08:48:48;7.85;;;6.10;;
56997;SDS011;42890;44.244;22.530;2023-05-02T08:51:15;9.65;;;6.93;;
56997;SDS011;42890;44.244;22.530;2023-05-02T08:53:43;7.57;;;6.35;;
56997;SDS011;42890;44.244;22.530;2023-05-02T08:56:09;5.45;;;4.85;;
56997;SDS011;42890;44.244;22.530;2023-05-02T08:58:36;14.70;;;6.45;;
56997;SDS011;42890;44.244;22.530;2023-05-02T09:01:08;11.18;;;6.03;;
56997;SDS011;42890;44.244;22.530;2023-05-02T09:03:35;7.95;;;4.85;;
56997;SDS011;42890;44.244;22.530;2023-05-02T09:06:03;15.38;;;9.80;;
56997;SDS011;42890;44.244;22.530;2023-05-02T09:08:30;11.00;;;9.90;;
56997;SDS011;42890;44.244;22.530;2023-05-02T09:10:56;8.00;;;5.75;;
56997;SDS011;42890;44.244;22.530;2023-05-02T09:16:04;6.00;;;4.50;;
56997;SDS011;42890;44.244;22.530;2023-05-02T09:18:34;8.43;;;4.70;;
56997;SDS011;42890;44.244;22.530;2023-05-02T09:21:03;16.15;;;5.10;;
56997;SDS011;42890;44.244;22.530;2023-05-02T09:23:34;7.15;;;4.10;;
56997;SDS011;42890;44.244;22.530;2023-05-02T09:26:00;11.20;;;4.82;;
56997;SDS011;42890;44.244;22.530;2023-05-02T09:31:12;5.82;;;4.82;;
56997;SDS011;42890;44.244;22.530;2023-05-02T09:33:38;6.13;;;4.10;;
56997;SDS011;42890;44.244;22.530;2023-05-02T09:36:06;11.40;;;5.20;;
56997;SDS011;42890;44.244;22.530;2023-05-02T09:38:32;19.77;;;5.35;;
56997;SDS011;42890;44.244;22.530;2023-05-02T09:40:59;7.20;;;3.90;;
56997;SDS011;42890;44.244;22.530;2023-05-02T09:43:27;7.07;;;4.80;;
56997;SDS011;42890;44.244;22.530;2023-05-02T09:46:03;14.13;;;5.13;;
56997;SDS011;42890;44.244;22.530;2023-05-02T09:48:30;7.60;;;4.30;;
56997;SDS011;42890;44.244;22.530;2023-05-02T09:50:56;10.38;;;4.38;;
56997;SDS011;42890;44.244;22.530;2023-05-02T09:53:26;18.63;;;5.10;;
56997;SDS011;42890;44.244;22.530;2023-05-02T09:56:02;8.07;;;3.83;;
56997;SDS011;42890;44.244;22.530;2023-05-02T09:58:29;13.93;;;5.05;;
56997;SDS011;42890;44.244;22.530;2023-05-02T10:00:56;8.45;;;4.53;;
56997;SDS011;42890;44.244;22.530;2023-05-02T10:03:23;4.50;;;3.45;;
56997;SDS011;42890;44.244;22.530;2023-05-02T10:05:50;7.95;;;3.53;;
56997;SDS011;42890;44.244;22.530;2023-05-02T10:08:18;6.07;;;2.83;;
56997;SDS011;42890;44.244;22.530;2023-05-02T10:10:46;5.72;;;2.75;;
56997;SDS011;42890;44.244;22.530;2023-05-02T10:13:13;3.50;;;3.00;;
56997;SDS011;42890;44.244;22.530;2023-05-02T10:15:42;4.70;;;2.78;;
56997;SDS011;42890;44.244;22.530;2023-05-02T10:18:13;5.47;;;2.60;;
56997;SDS011;42890;44.244;22.530;2023-05-02T10:20:42;5.65;;;3.53;;
56997;SDS011;42890;44.244;22.530;2023-05-02T10:23:09;5.40;;;3.42;;
56997;SDS011;42890;44.244;22.530;2023-05-02T10:25:35;6.35;;;2.80;;
56997;SDS011;42890;44.244;22.530;2023-05-02T10:28:01;6.28;;;2.67;;
56997;SDS011;42890;44.244;22.530;2023-05-02T10:30:28;7.07;;;3.03;;
56997;SDS011;42890;44.244;22.530;2023-05-02T10:32:54;9.48;;;3.13;;
56997;SDS011;42890;44.244;22.530;2023-05-02T10:35:24;4.68;;;2.90;;
56997;SDS011;42890;44.244;22.530;2023-05-02T10:37:51;7.13;;;2.70;;
56997;SDS011;42890;44.244;22.530;2023-05-02T10:40:17;9.18;;;2.60;;
56997;SDS011;42890;44.244;22.530;2023-05-02T10:42:47;6.78;;;3.08;;
56997;SDS011;42890;44.244;22.530;2023-05-02T10:45:34;7.37;;;2.60;;
56997;SDS011;42890;44.244;22.530;2023-05-02T10:48:22;6.50;;;2.53;;
56997;SDS011;42890;44.244;22.530;2023-05-02T10:50:53;3.85;;;2.55;;
56997;SDS011;42890;44.244;22.530;2023-05-02T10:53:23;3.00;;;2.47;;
56997;SDS011;42890;44.244;22.530;2023-05-02T10:58:34;5.97;;;2.75;;
56997;SDS011;42890;44.244;22.530;2023-05-02T11:03:55;4.95;;;2.40;;
56997;SDS011;42890;44.244;22.530;2023-05-02T11:06:22;6.43;;;2.70;;
56997;SDS011;42890;44.244;22.530;2023-05-02T11:08:48;7.22;;;2.50;;
56997;SDS011;42890;44.244;22.530;2023-05-02T11:14:00;5.03;;;2.60;;
56997;SDS011;42890;44.244;22.530;2023-05-02T11:16:26;5.40;;;2.55;;
56997;SDS011;42890;44.244;22.530;2023-05-02T11:19:12;4.20;;;2.58;;
56997;SDS011;42890;44.244;22.530;2023-05-02T11:21:39;4.88;;;1.95;;
56997;SDS011;42890;44.244;22.530;2023-05-02T11:26:50;5.00;;;2.17;;
56997;SDS011;42890;44.244;22.530;2023-05-02T11:29:47;4.90;;;2.20;;
56997;SDS011;42890;44.244;22.530;2023-05-02T11:32:02;10.68;;;2.92;;
56997;SDS011;42890;44.244;22.530;2023-05-02T11:34:29;11.80;;;5.82;;
56997;SDS011;42890;44.244;22.530;2023-05-02T11:37:13;7.00;;;3.70;;
56997;SDS011;42890;44.244;22.530;2023-05-02T11:39:40;4.75;;;3.67;;
56997;SDS011;42890;44.244;22.530;2023-05-02T11:42:06;3.40;;;2.80;;
56997;SDS011;42890;44.244;22.530;2023-05-02T11:44:32;7.28;;;3.00;;
56997;SDS011;42890;44.244;22.530;2023-05-02T11:47:00;2.85;;;2.40;;
56997;SDS011;42890;44.244;22.530;2023-05-02T11:49:27;5.18;;;2.65;;
56997;SDS011;42890;44.244;22.530;2023-05-02T11:51:53;4.40;;;2.13;;
56997;SDS011;42890;44.244;22.530;2023-05-02T11:54:19;5.93;;;2.25;;
56997;SDS011;42890;44.244;22.530;2023-05-02T11:56:46;8.52;;;3.00;;
56997;SDS011;42890;44.244;22.530;2023-05-02T11:59:13;5.43;;;3.10;;
56997;SDS011;42890;44.244;22.530;2023-05-02T12:01:48;9.10;;;2.20;;
56997;SDS011;42890;44.244;22.530;2023-05-02T12:04:15;4.05;;;2.08;;
56997;SDS011;42890;44.244;22.530;2023-05-02T12:06:57;8.05;;;2.28;;
56997;SDS011;42890;44.244;22.530;2023-05-02T12:09:24;4.32;;;1.92;;
56997;SDS011;42890;44.244;22.530;2023-05-02T12:11:50;10.15;;;2.22;;
56997;SDS011;42890;44.244;22.530;2023-05-02T12:14:17;4.30;;;2.22;;
56997;SDS011;42890;44.244;22.530;2023-05-02T12:16:51;6.40;;;2.00;;
56997;SDS011;42890;44.244;22.530;2023-05-02T12:19:17;4.28;;;1.98;;
56997;SDS011;42890;44.244;22.530;2023-05-02T12:21:43;2.80;;;1.92;;
56997;SDS011;42890;44.244;22.530;2023-05-02T12:24:09;10.55;;;2.67;;
56997;SDS011;42890;44.244;22.530;2023-05-02T12:26:35;3.38;;;1.73;;
56997;SDS011;42890;44.244;22.530;2023-05-02T12:29:01;5.53;;;1.80;;
56997;SDS011;42890;44.244;22.530;2023-05-02T12:31:30;3.97;;;2.20;;
56997;SDS011;42890;44.244;22.530;2023-05-02T12:33:57;3.80;;;1.75;;
56997;SDS011;42890;44.244;22.530;2023-05-02T12:36:24;4.45;;;2.30;;
56997;SDS011;42890;44.244;22.530;2023-05-02T12:38:56;3.90;;;2.40;;
56997;SDS011;42890;44.244;22.530;2023-05-02T12:43:56;4.82;;;2.20;;
56997;SDS011;42890;44.244;22.530;2023-05-02T12:46:24;4.43;;;1.90;;
56997;SDS011;42890;44.244;22.530;2023-05-02T12:49:05;3.83;;;1.92;;
56997;SDS011;42890;44.244;22.530;2023-05-02T12:51:33;3.95;;;2.05;;
56997;SDS011;42890;44.244;22.530;2023-05-02T12:54:00;4.40;;;1.80;;
56997;SDS011;42890;44.244;22.530;2023-05-02T12:56:26;5.82;;;2.10;;
56997;SDS011;42890;44.244;22.530;2023-05-02T12:58:56;5.57;;;2.13;;
56997;SDS011;42890;44.244;22.530;2023-05-02T13:01:28;2.83;;;2.17;;
56997;SDS011;42890;44.244;22.530;2023-05-02T13:03:55;8.05;;;2.47;;
56997;SDS011;42890;44.244;22.530;2023-05-02T13:06:21;8.35;;;2.17;;
56997;SDS011;42890;44.244;22.530;2023-05-02T13:08:47;6.40;;;1.80;;
56997;SDS011;42890;44.244;22.530;2023-05-02T13:11:14;6.65;;;1.92;;
56997;SDS011;42890;44.244;22.530;2023-05-02T13:13:40;4.75;;;1.77;;
56997;SDS011;42890;44.244;22.530;2023-05-02T13:16:06;4.20;;;1.70;;
56997;SDS011;42890;44.244;22.530;2023-05-02T13:18:32;8.40;;;1.95;;
56997;SDS011;42890;44.244;22.530;2023-05-02T13:20:58;10.48;;;2.00;;
56997;SDS011;42890;44.244;22.530;2023-05-02T13:23:25;5.65;;;1.95;;
56997;SDS011;42890;44.244;22.530;2023-05-02T13:25:51;8.93;;;1.58;;
56997;SDS011;42890;44.244;22.530;2023-05-02T13:28:17;3.45;;;1.70;;
56997;SDS011;42890;44.244;22.530;2023-05-02T13:30:43;6.40;;;1.95;;
56997;SDS011;42890;44.244;22.530;2023-05-02T13:33:09;4.90;;;1.88;;
56997;SDS011;42890;44.244;22.530;2023-05-02T13:35:35;3.55;;;1.75;;
56997;SDS011;42890;44.244;22.530;2023-05-02T13:38:02;3.60;;;1.73;;
56997;SDS011;42890;44.244;22.530;2023-05-02T13:40:28;3.80;;;3.40;;
56997;SDS011;42890;44.244;22.530;2023-05-02T13:42:54;3.83;;;2.58;;
56997;SDS011;42890;44.244;22.530;2023-05-02T13:45:21;3.83;;;3.20;;
56997;SDS011;42890;44.244;22.530;2023-05-02T13:47:47;2.35;;;2.15;;
56997;SDS011;42890;44.244;22.530;2023-05-02T13:50:13;1.95;;;1.80;;
56997;SDS011;42890;44.244;22.530;2023-05-02T13:52:42;3.03;;;1.92;;
56997;SDS011;42890;44.244;22.530;2023-05-02T13:55:09;4.70;;;1.88;;
56997;SDS011;42890;44.244;22.530;2023-05-02T13:57:35;2.97;;;1.85;;
56997;SDS011;42890;44.244;22.530;2023-05-02T14:00:01;4.22;;;2.10;;
56997;SDS011;42890;44.244;22.530;2023-05-02T14:02:28;3.63;;;1.90;;
56997;SDS011;42890;44.244;22.530;2023-05-02T14:04:55;8.38;;;1.70;;
56997;SDS011;42890;44.244;22.530;2023-05-02T14:07:21;3.10;;;1.60;;
56997;SDS011;42890;44.244;22.530;2023-05-02T14:09:47;5.35;;;1.60;;
56997;SDS011;42890;44.244;22.530;2023-05-02T14:12:14;3.45;;;1.80;;
56997;SDS011;42890;44.244;22.530;2023-05-02T14:14:40;5.20;;;2.03;;
56997;SDS011;42890;44.244;22.530;2023-05-02T14:17:06;4.68;;;2.00;;
56997;SDS011;42890;44.244;22.530;2023-05-02T14:19:32;5.30;;;2.28;;
56997;SDS011;42890;44.244;22.530;2023-05-02T14:21:58;8.10;;;2.20;;
56997;SDS011;42890;44.244;22.530;2023-05-02T14:24:24;5.07;;;1.80;;
56997;SDS011;42890;44.244;22.530;2023-05-02T14:26:50;3.35;;;1.70;;
56997;SDS011;42890;44.244;22.530;2023-05-02T14:29:16;4.68;;;2.05;;
56997;SDS011;42890;44.244;22.530;2023-05-02T14:31:43;5.25;;;1.90;;
56997;SDS011;42890;44.244;22.530;2023-05-02T14:34:10;8.07;;;2.35;;
56997;SDS011;42890;44.244;22.530;2023-05-02T14:36:37;3.08;;;2.00;;
56997;SDS011;42890;44.244;22.530;2023-05-02T14:39:03;3.70;;;2.10;;
56997;SDS011;42890;44.244;22.530;2023-05-02T14:41:29;4.82;;;2.03;;
56997;SDS011;42890;44.244;22.530;2023-05-02T14:43:55;4.38;;;2.05;;
56997;SDS011;42890;44.244;22.530;2023-05-02T14:46:21;5.82;;;1.80;;
56997;SDS011;42890;44.244;22.530;2023-05-02T14:48:47;3.25;;;2.00;;
56997;SDS011;42890;44.244;22.530;2023-05-02T14:51:14;4.70;;;2.33;;
56997;SDS011;42890;44.244;22.530;2023-05-02T14:53:40;7.53;;;2.25;;
56997;SDS011;42890;44.244;22.530;2023-05-02T14:56:10;6.00;;;2.00;;
56997;SDS011;42890;44.244;22.530;2023-05-02T14:58:37;4.40;;;1.85;;
56997;SDS011;42890;44.244;22.530;2023-05-02T15:01:03;7.00;;;1.90;;
56997;SDS011;42890;44.244;22.530;2023-05-02T15:03:29;5.15;;;1.70;;
56997;SDS011;42890;44.244;22.530;2023-05-02T15:05:55;6.30;;;2.20;;
56997;SDS011;42890;44.244;22.530;2023-05-02T15:08:21;3.45;;;1.42;;
56997;SDS011;42890;44.244;22.530;2023-05-02T15:10:47;2.33;;;1.30;;
56997;SDS011;42890;44.244;22.530;2023-05-02T15:13:13;5.38;;;1.60;;
56997;SDS011;42890;44.244;22.530;2023-05-02T15:15:40;5.10;;;1.50;;
56997;SDS011;42890;44.244;22.530;2023-05-02T15:18:06;5.80;;;1.63;;
56997;SDS011;42890;44.244;22.530;2023-05-02T15:20:32;6.53;;;1.63;;